메인 페이지
METAR-TAF:

METAR-TAF

공항 :

Slave Lake, 앨버타, 캐나다

위도: 55-18N, 경도: 114-47W, 고도: 581m

현재 날씨관측

예보는 35분 전, 10:14시(UTC)에 발표되었습니다.
8kt
온도 -28°C
습도 75%
기압 1035 hPa
시정: 14.5km
약한눈

METAR: CYZH 181014Z AUTO 28008KT 9SM -SN M28/M31 A3056 RMK CLD MISG SLP423

시각: 03:49 (10:49 UTC)

예보

예보는 2 시간 9분 전, 08:40시(UTC)에 발표되었습니다.
예보 대상 시간: 18일 08시부터 18일 19시까지 (UTC)
서북서15kt
시정: 10km
고도 8000ft 상공 구름 조금
일시적
18일 08시부터 18일 14시까지 (UTC)
시정: 8.0km
고도 2000ft 상공 구름 조금
고도 8000ft 상공 구름 많음
약한눈
전환 중
18일 10시부터 18일 12시까지 (UTC)
8kt
18일 1400시부터 (UTC)
6kt
시정: 10km
고도 6000ft 상공 구름 조금
고도 24000ft 상공 구름 보통
전환 중
18일 17시부터 18일 19시까지 (UTC)
동남동6kt

TAF: CYZH 180840Z 1808/1819 29015KT P6SM FEW080 TEMPO 1808/1814 5SM -SN FEW020 BKN080 BECMG 1810/1812 28008KT FM181400 28006KT P6SM FEW060 SCT240 BECMG 1817/1819 12006KT RMK FCST BASED ON AUTO OBS. NXT FCST BY 181300Z

4,000개 이상의 공항 관측 자료 및 예보 (METAR 및 TAF 보고).

지도상에서 검색 가능한 기상관측소가 노란 점과 빨간 점으로 표시되어 있습니다.

기상관측소 명을 보려면 표시 위로 마우스를 이동하세요.

날씨 관측과 예보를 보려면 클릭하세요.

지도 변경 : 확대하려면 엑스 표시가 있는 녹색 버튼, 축소하려면 빼기 표시가 있는 녹색 버튼, 다음 페이지의 지도를 보려면 녹색 화살표를 클릭하세요.


METAR-TAF: